Terminal Aerodrome Forecast
Issued by NWS Cleveland, OH

Home | Current Version | Previous Version | Text Only | Print | Product List | Glossary Off
Versions: 1 2 3 4 5 6 7 8 9 10 11 12 13 14 15 16 17 18 19

012
FTUS41 KCLE 020533
TAFCAK
TAF
KCAK 020533Z 0206/0306 08006KT 6SM -SHRA BR OVC006
      TEMPO 0206/0208 2SM -TSRA BR OVC004CB
     FM020800 08006KT 4SM -DZ BR OVC008
     FM020900 03006KT 4SM -TSRA BR OVC005CB
     FM021000 34008KT 6SM BR OVC003
     FM021600 34008KT P6SM OVC007
     FM021800 35007KT P6SM OVC015
     FM030100 02005KT P6SM OVC035=

USA.gov is the U.S. government's official web portal to all federal, state and local government web resources and services.